sensor_id;sensor_type;location;lat;lon;timestamp;temperature;humidity
35127;DHT22;21300;52.006;5.798;2022-11-15T00:02:07;7.20;93.80
35127;DHT22;21300;52.006;5.798;2022-11-15T00:04:33;7.20;93.90
35127;DHT22;21300;52.006;5.798;2022-11-15T00:06:59;7.20;93.90
35127;DHT22;21300;52.006;5.798;2022-11-15T00:09:24;7.20;93.90
35127;DHT22;21300;52.006;5.798;2022-11-15T00:11:51;7.20;93.90
35127;DHT22;21300;52.006;5.798;2022-11-15T00:14:17;7.20;93.90
35127;DHT22;21300;52.006;5.798;2022-11-15T00:16:43;7.20;93.90
35127;DHT22;21300;52.006;5.798;2022-11-15T00:19:09;7.20;93.90
35127;DHT22;21300;52.006;5.798;2022-11-15T00:21:34;7.20;93.90
35127;DHT22;21300;52.006;5.798;2022-11-15T00:24:00;7.20;93.90
35127;DHT22;21300;52.006;5.798;2022-11-15T00:26:25;7.20;93.90
35127;DHT22;21300;52.006;5.798;2022-11-15T00:28:52;7.20;93.90
35127;DHT22;21300;52.006;5.798;2022-11-15T00:31:18;7.20;93.90
35127;DHT22;21300;52.006;5.798;2022-11-15T00:33:44;7.20;93.90
35127;DHT22;21300;52.006;5.798;2022-11-15T00:36:10;7.20;93.90
35127;DHT22;21300;52.006;5.798;2022-11-15T00:38:38;7.20;93.90
35127;DHT22;21300;52.006;5.798;2022-11-15T00:41:05;7.20;93.90
35127;DHT22;21300;52.006;5.798;2022-11-15T00:43:31;7.20;93.90
35127;DHT22;21300;52.006;5.798;2022-11-15T00:45:57;7.20;93.90
35127;DHT22;21300;52.006;5.798;2022-11-15T00:48:23;7.20;93.90
35127;DHT22;21300;52.006;5.798;2022-11-15T00:50:49;7.20;93.90
35127;DHT22;21300;52.006;5.798;2022-11-15T00:53:15;7.20;93.90
35127;DHT22;21300;52.006;5.798;2022-11-15T00:55:41;7.20;93.90
35127;DHT22;21300;52.006;5.798;2022-11-15T00:58:07;7.30;93.90
35127;DHT22;21300;52.006;5.798;2022-11-15T01:00:32;7.20;93.90
35127;DHT22;21300;52.006;5.798;2022-11-15T01:02:59;7.20;93.90
35127;DHT22;21300;52.006;5.798;2022-11-15T01:05:25;7.30;93.90
35127;DHT22;21300;52.006;5.798;2022-11-15T01:07:54;7.30;93.90
35127;DHT22;21300;52.006;5.798;2022-11-15T01:10:20;7.20;93.90
35127;DHT22;21300;52.006;5.798;2022-11-15T01:12:46;7.20;93.90
35127;DHT22;21300;52.006;5.798;2022-11-15T01:15:11;7.30;93.90
35127;DHT22;21300;52.006;5.798;2022-11-15T01:17:37;7.20;93.90
35127;DHT22;21300;52.006;5.798;2022-11-15T01:20:03;7.30;93.90
35127;DHT22;21300;52.006;5.798;2022-11-15T01:22:29;7.30;93.90
35127;DHT22;21300;52.006;5.798;2022-11-15T01:24:54;7.30;93.90
35127;DHT22;21300;52.006;5.798;2022-11-15T01:27:20;7.30;93.90
35127;DHT22;21300;52.006;5.798;2022-11-15T01:29:45;7.30;93.90
35127;DHT22;21300;52.006;5.798;2022-11-15T01:32:11;7.30;93.90
35127;DHT22;21300;52.006;5.798;2022-11-15T01:34:36;7.30;93.90
35127;DHT22;21300;52.006;5.798;2022-11-15T01:37:02;7.30;93.90
35127;DHT22;21300;52.006;5.798;2022-11-15T01:39:28;7.30;93.90
35127;DHT22;21300;52.006;5.798;2022-11-15T01:41:53;7.30;93.90
35127;DHT22;21300;52.006;5.798;2022-11-15T01:46:58;7.30;93.90
35127;DHT22;21300;52.006;5.798;2022-11-15T01:49:27;7.30;93.90
35127;DHT22;21300;52.006;5.798;2022-11-15T01:51:55;7.30;93.90
35127;DHT22;21300;52.006;5.798;2022-11-15T01:54:23;7.30;93.90
35127;DHT22;21300;52.006;5.798;2022-11-15T01:56:53;7.30;93.90
35127;DHT22;21300;52.006;5.798;2022-11-15T01:59:21;7.30;93.90
35127;DHT22;21300;52.006;5.798;2022-11-15T02:01:48;7.30;93.90
35127;DHT22;21300;52.006;5.798;2022-11-15T02:04:17;7.30;93.90
35127;DHT22;21300;52.006;5.798;2022-11-15T02:06:45;7.40;93.90
35127;DHT22;21300;52.006;5.798;2022-11-15T02:09:12;7.30;93.90
35127;DHT22;21300;52.006;5.798;2022-11-15T02:11:38;7.40;93.90
35127;DHT22;21300;52.006;5.798;2022-11-15T02:14:05;7.40;93.90
35127;DHT22;21300;52.006;5.798;2022-11-15T02:16:58;7.40;93.90
35127;DHT22;21300;52.006;5.798;2022-11-15T02:19:58;7.30;93.90
35127;DHT22;21300;52.006;5.798;2022-11-15T02:25:37;7.40;93.90
35127;DHT22;21300;52.006;5.798;2022-11-15T02:28:32;7.40;93.90
35127;DHT22;21300;52.006;5.798;2022-11-15T02:31:11;7.40;93.90
35127;DHT22;21300;52.006;5.798;2022-11-15T02:38:54;7.40;93.90
35127;DHT22;21300;52.006;5.798;2022-11-15T02:41:52;7.40;93.90
35127;DHT22;21300;52.006;5.798;2022-11-15T02:44:30;7.40;94.00
35127;DHT22;21300;52.006;5.798;2022-11-15T02:47:00;7.40;93.90
35127;DHT22;21300;52.006;5.798;2022-11-15T02:49:46;7.40;93.90
35127;DHT22;21300;52.006;5.798;2022-11-15T02:52:20;7.40;93.90
35127;DHT22;21300;52.006;5.798;2022-11-15T02:54:57;7.40;93.90
35127;DHT22;21300;52.006;5.798;2022-11-15T02:57:36;7.40;93.90
35127;DHT22;21300;52.006;5.798;2022-11-15T03:00:08;7.50;93.90
35127;DHT22;21300;52.006;5.798;2022-11-15T03:05:42;7.50;93.90
35127;DHT22;21300;52.006;5.798;2022-11-15T03:08:16;7.50;94.00
35127;DHT22;21300;52.006;5.798;2022-11-15T03:11:09;7.50;93.90
35127;DHT22;21300;52.006;5.798;2022-11-15T03:13:46;7.50;93.90
35127;DHT22;21300;52.006;5.798;2022-11-15T03:19:14;7.50;93.90
35127;DHT22;21300;52.006;5.798;2022-11-15T03:21:44;7.60;93.90
35127;DHT22;21300;52.006;5.798;2022-11-15T03:24:12;7.50;93.90
35127;DHT22;21300;52.006;5.798;2022-11-15T03:26:40;7.60;93.90
35127;DHT22;21300;52.006;5.798;2022-11-15T03:29:11;7.50;93.90
35127;DHT22;21300;52.006;5.798;2022-11-15T03:31:42;7.60;93.90
35127;DHT22;21300;52.006;5.798;2022-11-15T03:36:50;7.60;93.90
35127;DHT22;21300;52.006;5.798;2022-11-15T03:39:16;7.60;93.90
35127;DHT22;21300;52.006;5.798;2022-11-15T03:41:59;7.60;93.90
35127;DHT22;21300;52.006;5.798;2022-11-15T03:47:08;7.60;93.90
35127;DHT22;21300;52.006;5.798;2022-11-15T03:49:38;7.60;94.00
35127;DHT22;21300;52.006;5.798;2022-11-15T03:52:05;7.60;93.90
35127;DHT22;21300;52.006;5.798;2022-11-15T03:54:31;7.70;93.90
35127;DHT22;21300;52.006;5.798;2022-11-15T03:56:56;7.70;93.90
35127;DHT22;21300;52.006;5.798;2022-11-15T03:59:22;7.70;93.90
35127;DHT22;21300;52.006;5.798;2022-11-15T04:01:48;7.70;93.90
35127;DHT22;21300;52.006;5.798;2022-11-15T04:04:14;7.70;94.00
35127;DHT22;21300;52.006;5.798;2022-11-15T04:06:39;7.70;93.90
35127;DHT22;21300;52.006;5.798;2022-11-15T04:09:05;7.70;93.90
35127;DHT22;21300;52.006;5.798;2022-11-15T04:11:30;7.80;94.00
35127;DHT22;21300;52.006;5.798;2022-11-15T04:13:56;7.70;93.90
35127;DHT22;21300;52.006;5.798;2022-11-15T04:16:22;7.70;93.90
35127;DHT22;21300;52.006;5.798;2022-11-15T04:18:47;7.70;93.90
35127;DHT22;21300;52.006;5.798;2022-11-15T04:21:33;7.80;94.00
35127;DHT22;21300;52.006;5.798;2022-11-15T04:24:17;7.80;93.90
35127;DHT22;21300;52.006;5.798;2022-11-15T04:26:42;7.80;93.90
35127;DHT22;21300;52.006;5.798;2022-11-15T04:29:08;7.80;93.90
35127;DHT22;21300;52.006;5.798;2022-11-15T04:31:52;7.80;93.90
35127;DHT22;21300;52.006;5.798;2022-11-15T04:34:18;7.80;93.80
35127;DHT22;21300;52.006;5.798;2022-11-15T04:36:43;7.80;93.80
35127;DHT22;21300;52.006;5.798;2022-11-15T04:39:27;7.80;93.90
35127;DHT22;21300;52.006;5.798;2022-11-15T04:41:53;7.80;93.90
35127;DHT22;21300;52.006;5.798;2022-11-15T04:44:18;7.80;93.90
35127;DHT22;21300;52.006;5.798;2022-11-15T04:46:44;7.90;93.90
35127;DHT22;21300;52.006;5.798;2022-11-15T04:49:10;7.90;93.90
35127;DHT22;21300;52.006;5.798;2022-11-15T04:51:35;7.90;93.90
35127;DHT22;21300;52.006;5.798;2022-11-15T04:54:01;7.90;93.90
35127;DHT22;21300;52.006;5.798;2022-11-15T04:56:26;7.90;93.90
35127;DHT22;21300;52.006;5.798;2022-11-15T04:58:52;7.90;93.90
35127;DHT22;21300;52.006;5.798;2022-11-15T05:01:18;7.90;93.80
35127;DHT22;21300;52.006;5.798;2022-11-15T05:03:44;7.90;93.80
35127;DHT22;21300;52.006;5.798;2022-11-15T05:06:28;7.90;93.90
35127;DHT22;21300;52.006;5.798;2022-11-15T05:08:55;8.00;93.90
35127;DHT22;21300;52.006;5.798;2022-11-15T05:11:21;8.00;93.90
35127;DHT22;21300;52.006;5.798;2022-11-15T05:13:46;7.90;93.80
35127;DHT22;21300;52.006;5.798;2022-11-15T05:16:12;8.00;93.90
35127;DHT22;21300;52.006;5.798;2022-11-15T05:18:38;8.00;93.80
35127;DHT22;21300;52.006;5.798;2022-11-15T05:21:08;8.00;93.80
35127;DHT22;21300;52.006;5.798;2022-11-15T05:23:34;8.00;93.90
35127;DHT22;21300;52.006;5.798;2022-11-15T05:26:00;8.00;93.90
35127;DHT22;21300;52.006;5.798;2022-11-15T05:28:26;8.00;93.80
35127;DHT22;21300;52.006;5.798;2022-11-15T05:30:52;8.00;93.80
35127;DHT22;21300;52.006;5.798;2022-11-15T05:33:18;8.10;93.90
35127;DHT22;21300;52.006;5.798;2022-11-15T05:35:48;8.10;93.90
35127;DHT22;21300;52.006;5.798;2022-11-15T05:38:16;8.10;93.80
35127;DHT22;21300;52.006;5.798;2022-11-15T05:40:41;8.10;93.80
35127;DHT22;21300;52.006;5.798;2022-11-15T05:43:07;8.10;93.90
35127;DHT22;21300;52.006;5.798;2022-11-15T05:45:34;8.10;93.90
35127;DHT22;21300;52.006;5.798;2022-11-15T05:48:01;8.10;93.80
35127;DHT22;21300;52.006;5.798;2022-11-15T05:50:31;8.10;93.80
35127;DHT22;21300;52.006;5.798;2022-11-15T05:52:56;8.20;93.80
35127;DHT22;21300;52.006;5.798;2022-11-15T05:55:22;8.10;93.80
35127;DHT22;21300;52.006;5.798;2022-11-15T05:57:48;8.20;93.90
35127;DHT22;21300;52.006;5.798;2022-11-15T06:00:14;8.20;93.80
35127;DHT22;21300;52.006;5.798;2022-11-15T06:02:39;8.20;93.90
35127;DHT22;21300;52.006;5.798;2022-11-15T06:05:05;8.20;93.90
35127;DHT22;21300;52.006;5.798;2022-11-15T06:07:31;8.20;93.90
35127;DHT22;21300;52.006;5.798;2022-11-15T06:09:56;8.20;93.80
35127;DHT22;21300;52.006;5.798;2022-11-15T06:12:22;8.20;93.80
35127;DHT22;21300;52.006;5.798;2022-11-15T06:14:47;8.20;93.80
35127;DHT22;21300;52.006;5.798;2022-11-15T06:17:13;8.30;93.90
35127;DHT22;21300;52.006;5.798;2022-11-15T06:19:38;8.30;93.90
35127;DHT22;21300;52.006;5.798;2022-11-15T06:22:04;8.30;93.90
35127;DHT22;21300;52.006;5.798;2022-11-15T06:24:30;8.30;93.80
35127;DHT22;21300;52.006;5.798;2022-11-15T06:26:56;8.30;93.90
35127;DHT22;21300;52.006;5.798;2022-11-15T06:29:22;8.30;93.90
35127;DHT22;21300;52.006;5.798;2022-11-15T06:31:48;8.30;94.00
35127;DHT22;21300;52.006;5.798;2022-11-15T06:34:13;8.30;94.00
35127;DHT22;21300;52.006;5.798;2022-11-15T06:36:39;8.30;94.00
35127;DHT22;21300;52.006;5.798;2022-11-15T06:39:05;8.30;94.00
35127;DHT22;21300;52.006;5.798;2022-11-15T06:41:33;8.30;94.00
35127;DHT22;21300;52.006;5.798;2022-11-15T06:43:58;8.30;94.00
35127;DHT22;21300;52.006;5.798;2022-11-15T06:46:24;8.30;94.00
35127;DHT22;21300;52.006;5.798;2022-11-15T06:48:53;8.30;94.10
35127;DHT22;21300;52.006;5.798;2022-11-15T06:51:19;8.40;94.20
35127;DHT22;21300;52.006;5.798;2022-11-15T06:53:45;8.40;94.20
35127;DHT22;21300;52.006;5.798;2022-11-15T06:56:10;8.40;94.20
35127;DHT22;21300;52.006;5.798;2022-11-15T06:58:36;8.40;94.30
35127;DHT22;21300;52.006;5.798;2022-11-15T07:01:07;8.40;94.30
35127;DHT22;21300;52.006;5.798;2022-11-15T07:03:37;8.40;94.30
35127;DHT22;21300;52.006;5.798;2022-11-15T07:06:03;8.40;94.30
35127;DHT22;21300;52.006;5.798;2022-11-15T07:08:29;8.40;94.30
35127;DHT22;21300;52.006;5.798;2022-11-15T07:10:58;8.40;94.30
35127;DHT22;21300;52.006;5.798;2022-11-15T07:13:26;8.50;94.30
35127;DHT22;21300;52.006;5.798;2022-11-15T07:15:52;8.50;94.30
35127;DHT22;21300;52.006;5.798;2022-11-15T07:18:18;8.60;96.00
35127;DHT22;21300;52.006;5.798;2022-11-15T07:20:43;8.60;95.60
35127;DHT22;21300;52.006;5.798;2022-11-15T07:23:09;8.60;95.50
35127;DHT22;21300;52.006;5.798;2022-11-15T07:25:34;8.60;95.50
35127;DHT22;21300;52.006;5.798;2022-11-15T07:28:01;8.60;95.40
35127;DHT22;21300;52.006;5.798;2022-11-15T07:30:27;8.60;95.40
35127;DHT22;21300;52.006;5.798;2022-11-15T07:32:59;8.60;95.30
35127;DHT22;21300;52.006;5.798;2022-11-15T07:35:26;8.60;95.30
35127;DHT22;21300;52.006;5.798;2022-11-15T07:38:00;8.60;95.70
35127;DHT22;21300;52.006;5.798;2022-11-15T07:40:27;8.70;95.60
35127;DHT22;21300;52.006;5.798;2022-11-15T07:42:59;8.70;95.60
35127;DHT22;21300;52.006;5.798;2022-11-15T07:45:25;8.70;95.60
35127;DHT22;21300;52.006;5.798;2022-11-15T07:47:51;8.70;95.60
35127;DHT22;21300;52.006;5.798;2022-11-15T07:50:17;8.70;95.50
35127;DHT22;21300;52.006;5.798;2022-11-15T07:52:44;8.70;95.50
35127;DHT22;21300;52.006;5.798;2022-11-15T07:55:10;8.70;95.50
35127;DHT22;21300;52.006;5.798;2022-11-15T07:57:35;8.70;95.50
35127;DHT22;21300;52.006;5.798;2022-11-15T08:00:03;8.70;95.40
35127;DHT22;21300;52.006;5.798;2022-11-15T08:02:29;8.70;95.40
35127;DHT22;21300;52.006;5.798;2022-11-15T08:04:54;8.70;95.40
35127;DHT22;21300;52.006;5.798;2022-11-15T08:07:20;8.70;95.40
35127;DHT22;21300;52.006;5.798;2022-11-15T08:09:45;8.70;95.40
35127;DHT22;21300;52.006;5.798;2022-11-15T08:12:11;8.80;95.40
35127;DHT22;21300;52.006;5.798;2022-11-15T08:14:36;8.70;95.30
35127;DHT22;21300;52.006;5.798;2022-11-15T08:17:02;8.80;95.30
35127;DHT22;21300;52.006;5.798;2022-11-15T08:19:28;8.70;95.30
35127;DHT22;21300;52.006;5.798;2022-11-15T08:21:53;8.70;95.30
35127;DHT22;21300;52.006;5.798;2022-11-15T08:24:19;8.80;95.30
35127;DHT22;21300;52.006;5.798;2022-11-15T08:26:45;8.80;95.30
35127;DHT22;21300;52.006;5.798;2022-11-15T08:29:11;8.80;95.30
35127;DHT22;21300;52.006;5.798;2022-11-15T08:31:37;8.80;95.30
35127;DHT22;21300;52.006;5.798;2022-11-15T08:34:03;8.80;95.30
35127;DHT22;21300;52.006;5.798;2022-11-15T08:36:29;8.80;95.20
35127;DHT22;21300;52.006;5.798;2022-11-15T08:38:55;8.80;95.30
35127;DHT22;21300;52.006;5.798;2022-11-15T08:41:38;8.90;95.30
35127;DHT22;21300;52.006;5.798;2022-11-15T08:44:04;8.90;95.60
35127;DHT22;21300;52.006;5.798;2022-11-15T08:46:30;8.80;95.20
35127;DHT22;21300;52.006;5.798;2022-11-15T08:48:55;8.90;97.10
35127;DHT22;21300;52.006;5.798;2022-11-15T08:51:21;9.10;97.90
35127;DHT22;21300;52.006;5.798;2022-11-15T08:53:47;9.20;97.50
35127;DHT22;21300;52.006;5.798;2022-11-15T08:56:14;9.20;97.20
35127;DHT22;21300;52.006;5.798;2022-11-15T08:58:40;9.20;97.00
35127;DHT22;21300;52.006;5.798;2022-11-15T09:01:06;9.10;96.90
35127;DHT22;21300;52.006;5.798;2022-11-15T09:03:31;9.10;96.80
35127;DHT22;21300;52.006;5.798;2022-11-15T09:05:58;9.10;96.70
35127;DHT22;21300;52.006;5.798;2022-11-15T09:08:25;9.10;96.60
35127;DHT22;21300;52.006;5.798;2022-11-15T09:10:51;9.10;96.50
35127;DHT22;21300;52.006;5.798;2022-11-15T09:13:17;9.10;96.50
35127;DHT22;21300;52.006;5.798;2022-11-15T09:15:42;9.10;96.40
35127;DHT22;21300;52.006;5.798;2022-11-15T09:18:08;9.10;96.40
35127;DHT22;21300;52.006;5.798;2022-11-15T09:20:34;9.10;96.40
35127;DHT22;21300;52.006;5.798;2022-11-15T09:23:04;9.10;96.30
35127;DHT22;21300;52.006;5.798;2022-11-15T09:25:30;9.10;96.30
35127;DHT22;21300;52.006;5.798;2022-11-15T09:27:56;9.20;96.30
35127;DHT22;21300;52.006;5.798;2022-11-15T09:30:23;9.20;96.30
35127;DHT22;21300;52.006;5.798;2022-11-15T09:32:48;9.20;96.20
35127;DHT22;21300;52.006;5.798;2022-11-15T09:35:14;9.20;96.20
35127;DHT22;21300;52.006;5.798;2022-11-15T09:37:40;9.20;96.30
35127;DHT22;21300;52.006;5.798;2022-11-15T09:40:09;9.20;96.20
35127;DHT22;21300;52.006;5.798;2022-11-15T09:45:22;9.20;96.20
35127;DHT22;21300;52.006;5.798;2022-11-15T09:47:53;9.30;96.20
35127;DHT22;21300;52.006;5.798;2022-11-15T09:50:50;9.30;96.20
35127;DHT22;21300;52.006;5.798;2022-11-15T09:53:34;9.30;96.20
35127;DHT22;21300;52.006;5.798;2022-11-15T09:56:16;9.30;96.20
35127;DHT22;21300;52.006;5.798;2022-11-15T10:01:56;9.30;96.20
35127;DHT22;21300;52.006;5.798;2022-11-15T10:04:42;9.40;96.20
35127;DHT22;21300;52.006;5.798;2022-11-15T10:10:02;9.40;96.40
35127;DHT22;21300;52.006;5.798;2022-11-15T10:12:30;9.40;96.20
35127;DHT22;21300;52.006;5.798;2022-11-15T10:15:03;9.40;96.20
35127;DHT22;21300;52.006;5.798;2022-11-15T10:17:54;9.40;96.20
35127;DHT22;21300;52.006;5.798;2022-11-15T10:20:24;9.40;96.20
35127;DHT22;21300;52.006;5.798;2022-11-15T10:22:53;9.50;96.20
35127;DHT22;21300;52.006;5.798;2022-11-15T10:25:24;9.50;96.20
35127;DHT22;21300;52.006;5.798;2022-11-15T10:30:48;9.50;96.20
35127;DHT22;21300;52.006;5.798;2022-11-15T10:35:44;9.50;96.10
35127;DHT22;21300;52.006;5.798;2022-11-15T10:38:11;9.60;96.10
35127;DHT22;21300;52.006;5.798;2022-11-15T10:40:38;9.60;96.10
35127;DHT22;21300;52.006;5.798;2022-11-15T10:45:36;9.60;96.10
35127;DHT22;21300;52.006;5.798;2022-11-15T10:50:56;9.60;96.00
35127;DHT22;21300;52.006;5.798;2022-11-15T10:55:56;9.60;95.90
35127;DHT22;21300;52.006;5.798;2022-11-15T10:59:13;9.70;96.00
35127;DHT22;21300;52.006;5.798;2022-11-15T11:01:18;9.70;95.90
35127;DHT22;21300;52.006;5.798;2022-11-15T11:03:57;9.70;95.90
35127;DHT22;21300;52.006;5.798;2022-11-15T11:06:24;9.70;95.90
35127;DHT22;21300;52.006;5.798;2022-11-15T11:09:04;9.70;95.80
35127;DHT22;21300;52.006;5.798;2022-11-15T11:11:47;9.70;95.80
35127;DHT22;21300;52.006;5.798;2022-11-15T11:14:23;9.70;95.80
35127;DHT22;21300;52.006;5.798;2022-11-15T11:17:06;9.70;95.80
35127;DHT22;21300;52.006;5.798;2022-11-15T11:28:14;9.80;95.80
35127;DHT22;21300;52.006;5.798;2022-11-15T11:38:44;10.10;96.30
35127;DHT22;21300;52.006;5.798;2022-11-15T11:44:55;10.10;95.90
35127;DHT22;21300;52.006;5.798;2022-11-15T11:47:24;10.00;95.90
35127;DHT22;21300;52.006;5.798;2022-11-15T11:50:02;10.00;95.90
35127;DHT22;21300;52.006;5.798;2022-11-15T12:00:22;10.00;96.00
35127;DHT22;21300;52.006;5.798;2022-11-15T12:03:14;10.10;96.00
35127;DHT22;21300;52.006;5.798;2022-11-15T12:05:50;10.10;96.00
35127;DHT22;21300;52.006;5.798;2022-11-15T12:11:28;10.10;95.80
35127;DHT22;21300;52.006;5.798;2022-11-15T12:14:00;10.10;95.80
35127;DHT22;21300;52.006;5.798;2022-11-15T12:16:28;10.10;95.80
35127;DHT22;21300;52.006;5.798;2022-11-15T12:19:01;10.10;95.80
35127;DHT22;21300;52.006;5.798;2022-11-15T12:24:12;10.10;95.70
35127;DHT22;21300;52.006;5.798;2022-11-15T12:26:46;10.10;95.80
35127;DHT22;21300;52.006;5.798;2022-11-15T12:29:20;10.20;95.80
35127;DHT22;21300;52.006;5.798;2022-11-15T12:31:53;10.20;95.80
35127;DHT22;21300;52.006;5.798;2022-11-15T12:40:33;10.20;95.70
35127;DHT22;21300;52.006;5.798;2022-11-15T12:45:41;10.20;95.70
35127;DHT22;21300;52.006;5.798;2022-11-15T12:53:30;10.20;95.50
35127;DHT22;21300;52.006;5.798;2022-11-15T12:58:57;10.30;95.30
35127;DHT22;21300;52.006;5.798;2022-11-15T13:06:48;10.30;95.20
35127;DHT22;21300;52.006;5.798;2022-11-15T13:12:09;10.30;95.30
35127;DHT22;21300;52.006;5.798;2022-11-15T13:14:52;10.30;95.20
35127;DHT22;21300;52.006;5.798;2022-11-15T13:20:11;10.30;95.20
35127;DHT22;21300;52.006;5.798;2022-11-15T13:22:47;10.30;95.30
35127;DHT22;21300;52.006;5.798;2022-11-15T13:30:51;10.30;95.30
35127;DHT22;21300;52.006;5.798;2022-11-15T13:33:21;10.30;95.30
35127;DHT22;21300;52.006;5.798;2022-11-15T13:35:50;10.40;95.30
35127;DHT22;21300;52.006;5.798;2022-11-15T13:38:30;10.40;95.30
35127;DHT22;21300;52.006;5.798;2022-11-15T13:40:57;10.40;95.40
35127;DHT22;21300;52.006;5.798;2022-11-15T13:43:36;10.40;95.00
35127;DHT22;21300;52.006;5.798;2022-11-15T13:46:15;10.40;95.00
35127;DHT22;21300;52.006;5.798;2022-11-15T13:48:42;10.40;95.10
35127;DHT22;21300;52.006;5.798;2022-11-15T13:53:41;10.40;95.20
35127;DHT22;21300;52.006;5.798;2022-11-15T13:56:07;10.40;95.10
35127;DHT22;21300;52.006;5.798;2022-11-15T13:58:33;10.40;95.10
35127;DHT22;21300;52.006;5.798;2022-11-15T14:01:04;10.40;94.90
35127;DHT22;21300;52.006;5.798;2022-11-15T14:03:32;10.40;94.90
35127;DHT22;21300;52.006;5.798;2022-11-15T14:06:05;10.40;94.90
35127;DHT22;21300;52.006;5.798;2022-11-15T14:08:38;10.40;94.90
35127;DHT22;21300;52.006;5.798;2022-11-15T14:13:33;10.40;95.10
35127;DHT22;21300;52.006;5.798;2022-11-15T14:16:17;10.40;95.10
35127;DHT22;21300;52.006;5.798;2022-11-15T14:18:51;10.40;95.10
35127;DHT22;21300;52.006;5.798;2022-11-15T14:21:18;10.40;95.10
35127;DHT22;21300;52.006;5.798;2022-11-15T14:23:45;10.40;95.10
35127;DHT22;21300;52.006;5.798;2022-11-15T14:26:34;10.40;95.10
35127;DHT22;21300;52.006;5.798;2022-11-15T14:29:22;10.40;95.20
35127;DHT22;21300;52.006;5.798;2022-11-15T14:31:48;10.40;95.20
35127;DHT22;21300;52.006;5.798;2022-11-15T14:34:14;10.40;95.20
35127;DHT22;21300;52.006;5.798;2022-11-15T14:36:40;10.40;95.20
35127;DHT22;21300;52.006;5.798;2022-11-15T14:39:05;10.40;95.30
35127;DHT22;21300;52.006;5.798;2022-11-15T14:41:35;10.40;95.30
35127;DHT22;21300;52.006;5.798;2022-11-15T14:44:03;10.40;95.30
35127;DHT22;21300;52.006;5.798;2022-11-15T14:46:30;10.40;95.30
35127;DHT22;21300;52.006;5.798;2022-11-15T14:48:55;10.40;95.30
35127;DHT22;21300;52.006;5.798;2022-11-15T14:51:21;10.40;95.30
35127;DHT22;21300;52.006;5.798;2022-11-15T14:53:47;10.40;95.30
35127;DHT22;21300;52.006;5.798;2022-11-15T14:56:13;10.40;95.70
35127;DHT22;21300;52.006;5.798;2022-11-15T14:58:39;10.40;95.30
35127;DHT22;21300;52.006;5.798;2022-11-15T15:01:34;10.30;95.30
35127;DHT22;21300;52.006;5.798;2022-11-15T15:03:59;10.40;95.30
35127;DHT22;21300;52.006;5.798;2022-11-15T15:06:25;10.40;95.30
35127;DHT22;21300;52.006;5.798;2022-11-15T15:08:50;10.40;95.30
35127;DHT22;21300;52.006;5.798;2022-11-15T15:11:21;10.40;95.40
35127;DHT22;21300;52.006;5.798;2022-11-15T15:13:47;10.40;95.30
35127;DHT22;21300;52.006;5.798;2022-11-15T15:16:13;10.40;95.30
35127;DHT22;21300;52.006;5.798;2022-11-15T15:18:38;10.40;95.30
35127;DHT22;21300;52.006;5.798;2022-11-15T15:21:20;10.40;95.30
35127;DHT22;21300;52.006;5.798;2022-11-15T15:23:47;10.30;95.30
35127;DHT22;21300;52.006;5.798;2022-11-15T15:26:13;10.40;95.30
35127;DHT22;21300;52.006;5.798;2022-11-15T15:28:38;10.40;95.30
35127;DHT22;21300;52.006;5.798;2022-11-15T15:31:04;10.40;95.30
35127;DHT22;21300;52.006;5.798;2022-11-15T15:33:30;10.40;95.30
35127;DHT22;21300;52.006;5.798;2022-11-15T15:35:56;10.40;95.30
35127;DHT22;21300;52.006;5.798;2022-11-15T15:38:22;10.40;95.30
35127;DHT22;21300;52.006;5.798;2022-11-15T15:40:48;10.40;95.30
35127;DHT22;21300;52.006;5.798;2022-11-15T15:43:13;10.40;95.20
35127;DHT22;21300;52.006;5.798;2022-11-15T15:45:40;10.40;95.20
35127;DHT22;21300;52.006;5.798;2022-11-15T15:48:12;10.40;95.20
35127;DHT22;21300;52.006;5.798;2022-11-15T15:50:38;10.40;94.60
35127;DHT22;21300;52.006;5.798;2022-11-15T15:55:48;10.40;95.00
35127;DHT22;21300;52.006;5.798;2022-11-15T15:58:14;10.40;95.00
35127;DHT22;21300;52.006;5.798;2022-11-15T16:00:39;10.40;95.10
35127;DHT22;21300;52.006;5.798;2022-11-15T16:03:05;10.40;95.10
35127;DHT22;21300;52.006;5.798;2022-11-15T16:05:30;10.40;95.10
35127;DHT22;21300;52.006;5.798;2022-11-15T16:07:56;10.40;95.10
35127;DHT22;21300;52.006;5.798;2022-11-15T16:10:26;10.40;95.10
35127;DHT22;21300;52.006;5.798;2022-11-15T16:12:52;10.40;95.10
35127;DHT22;21300;52.006;5.798;2022-11-15T16:15:22;10.40;94.90
35127;DHT22;21300;52.006;5.798;2022-11-15T16:17:59;10.40;94.60
35127;DHT22;21300;52.006;5.798;2022-11-15T16:20:46;10.40;94.60
35127;DHT22;21300;52.006;5.798;2022-11-15T16:23:16;10.40;94.60
35127;DHT22;21300;52.006;5.798;2022-11-15T16:25:46;10.40;94.50
35127;DHT22;21300;52.006;5.798;2022-11-15T16:28:23;10.40;94.50
35127;DHT22;21300;52.006;5.798;2022-11-15T16:30:58;10.40;94.50
35127;DHT22;21300;52.006;5.798;2022-11-15T16:33:23;10.40;94.50
35127;DHT22;21300;52.006;5.798;2022-11-15T16:35:49;10.40;94.50
35127;DHT22;21300;52.006;5.798;2022-11-15T16:38:15;10.40;94.50
35127;DHT22;21300;52.006;5.798;2022-11-15T16:40:41;10.40;94.60
35127;DHT22;21300;52.006;5.798;2022-11-15T16:43:07;10.40;94.70
35127;DHT22;21300;52.006;5.798;2022-11-15T16:45:34;10.40;95.00
35127;DHT22;21300;52.006;5.798;2022-11-15T16:47:59;10.40;94.60
35127;DHT22;21300;52.006;5.798;2022-11-15T16:50:27;10.40;94.60
35127;DHT22;21300;52.006;5.798;2022-11-15T16:52:57;10.40;94.70
35127;DHT22;21300;52.006;5.798;2022-11-15T16:55:27;10.40;94.60
35127;DHT22;21300;52.006;5.798;2022-11-15T16:57:53;10.40;94.60
35127;DHT22;21300;52.006;5.798;2022-11-15T17:00:20;10.40;94.60
35127;DHT22;21300;52.006;5.798;2022-11-15T17:02:47;10.40;94.60
35127;DHT22;21300;52.006;5.798;2022-11-15T17:05:15;10.40;94.60
35127;DHT22;21300;52.006;5.798;2022-11-15T17:07:41;10.40;94.60
35127;DHT22;21300;52.006;5.798;2022-11-15T17:10:08;10.40;94.60
35127;DHT22;21300;52.006;5.798;2022-11-15T17:12:35;10.40;94.70
35127;DHT22;21300;52.006;5.798;2022-11-15T17:15:01;10.40;94.60
35127;DHT22;21300;52.006;5.798;2022-11-15T17:17:29;10.40;94.70
35127;DHT22;21300;52.006;5.798;2022-11-15T17:19:54;10.40;94.70
35127;DHT22;21300;52.006;5.798;2022-11-15T17:22:39;10.40;94.70
35127;DHT22;21300;52.006;5.798;2022-11-15T17:25:05;10.40;94.70
35127;DHT22;21300;52.006;5.798;2022-11-15T17:27:30;10.40;94.70
35127;DHT22;21300;52.006;5.798;2022-11-15T17:29:56;10.40;94.70
35127;DHT22;21300;52.006;5.798;2022-11-15T17:32:22;10.40;94.80
35127;DHT22;21300;52.006;5.798;2022-11-15T17:34:47;10.50;94.80
35127;DHT22;21300;52.006;5.798;2022-11-15T17:37:13;10.40;94.70
35127;DHT22;21300;52.006;5.798;2022-11-15T17:39:38;10.40;94.60
35127;DHT22;21300;52.006;5.798;2022-11-15T17:42:04;10.40;94.60
35127;DHT22;21300;52.006;5.798;2022-11-15T17:44:30;10.50;94.60
35127;DHT22;21300;52.006;5.798;2022-11-15T17:46:56;10.50;94.70
35127;DHT22;21300;52.006;5.798;2022-11-15T17:49:22;10.40;94.70
35127;DHT22;21300;52.006;5.798;2022-11-15T17:51:47;10.40;94.70